createdAt,value
2019-04-01T08:37:30.210Z,1026.4542
2019-04-01T08:37:41.217Z,1026.3785
2019-04-01T08:38:16.400Z,1026.4223
2019-04-01T08:38:26.446Z,1026.4468
2019-04-01T08:38:36.464Z,1026.39
2019-04-01T08:38:46.651Z,1026.4111
2019-04-01T08:38:57.754Z,1026.3192
2019-04-01T08:39:06.522Z,1026.305
2019-04-01T08:39:16.607Z,1026.2763
2019-04-01T08:39:27.780Z,1026.3505
2019-04-01T09:41:08.900Z,1026.187
2019-04-01T09:41:22.492Z,1026.1535
2019-04-01T09:45:15.677Z,1026.1326
2019-04-01T09:45:33.595Z,1026.1037
2019-04-01T09:45:47.770Z,1026.1203
2019-04-01T09:45:58.170Z,1026.1499
2019-04-01T09:46:13.758Z,1026.1053
2019-04-01T09:46:29.970Z,1026.0905
2019-04-01T09:46:39.909Z,1026.0603
2019-04-01T09:47:00.448Z,1026.0803
2019-04-01T09:49:04.261Z,1026.1242
2019-04-01T09:49:15.367Z,1026.1617
2019-04-01T09:49:25.966Z,1026.1279
2019-04-01T09:49:38.923Z,1026.1311
2019-04-01T09:49:52.302Z,1026.1186
2019-04-01T09:52:31.103Z,1026.0718
2019-04-01T09:52:48.591Z,1026.1103
2019-04-01T09:53:00.969Z,1026.0671
2019-04-01T09:53:12.173Z,1026.0384
2019-04-01T09:53:25.724Z,1026.0352
2019-04-01T09:53:36.836Z,1026.0338
2019-04-01T09:53:49.259Z,1026.0187
2019-04-01T09:54:00.245Z,1026.0328
2019-04-01T09:54:11.146Z,1026.0093
2019-04-01T09:54:22.162Z,1026.0322
2019-04-01T09:54:34.837Z,1026.0524
2019-04-01T09:54:45.825Z,1026.0407
2019-04-01T09:54:56.569Z,1026.0437
2019-04-01T09:57:16.456Z,1025.9948
2019-04-01T09:57:19.669Z,1026.0313
2019-04-01T09:57:29.796Z,1026.0101
2019-04-01T09:57:39.532Z,1026.0439
2019-04-01T09:57:49.656Z,1026.018
2019-04-01T09:57:59.624Z,1026.0235
2019-04-01T09:58:09.673Z,1025.9921
2019-04-01T09:58:19.960Z,1025.9665
2019-04-01T09:58:30.336Z,1025.997
2019-04-01T10:08:17.802Z,1025.901
2019-04-01T10:08:42.260Z,1025.9127
2019-04-01T10:08:50.085Z,1025.9096
2019-04-01T10:09:00.157Z,1025.8752
2019-04-01T10:09:10.017Z,1025.9384
2019-04-01T10:09:20.155Z,1025.9353
2019-04-01T10:09:30.347Z,1025.9281
2019-04-01T10:09:40.970Z,1025.937
2019-04-01T10:09:50.794Z,1025.9024
2019-04-01T10:12:57.973Z,1025.8093
2019-04-01T10:13:08.369Z,1025.7626
2019-04-01T10:13:21.171Z,1025.7807
2019-04-01T10:13:35.305Z,1025.7851
2019-04-01T10:13:46.175Z,1025.7327
2019-04-01T10:14:00.156Z,1025.7421
2019-04-01T10:14:11.108Z,1025.7546
2019-04-01T10:14:20.784Z,1025.7353
2019-04-01T10:14:31.818Z,1025.7561
2019-04-01T10:14:42.177Z,1025.7329
2019-04-01T10:22:25.378Z,1025.7723
2019-04-01T10:22:34.527Z,1025.7497
2019-04-01T10:22:44.505Z,1025.8114
2019-04-01T10:22:54.539Z,1025.7487
2019-04-01T10:23:05.216Z,1025.7585
2019-04-01T10:23:28.014Z,1025.7707
2019-04-01T10:23:36.321Z,1025.6756
2019-04-01T10:23:47.242Z,1025.6591
2019-04-01T10:23:56.486Z,1025.7601
2019-04-01T10:24:06.569Z,1025.781
2019-04-01T10:24:16.536Z,1025.6982
2019-04-01T10:24:26.594Z,1025.6882
2019-04-01T10:24:36.768Z,1025.6989
2019-04-01T10:24:46.957Z,1025.6848
2019-04-01T10:24:56.780Z,1025.6831
2019-04-01T10:25:06.647Z,1025.6162
2019-04-01T10:25:16.739Z,1025.5986
2019-04-01T10:25:26.750Z,1025.5688
2019-04-01T10:25:36.741Z,1025.5872
2019-04-01T10:25:47.028Z,1025.7304
2019-04-01T10:25:57.817Z,1025.6066
2019-04-01T10:26:07.853Z,1025.6661
2019-04-01T10:26:17.858Z,1025.6761
2019-04-01T10:26:28.037Z,1025.7412
2019-04-01T10:26:37.919Z,1025.6665
2019-04-01T10:26:48.041Z,1025.595
2019-04-01T10:26:58.018Z,1025.7192
2019-04-01T10:27:09.023Z,1025.6552
2019-04-01T10:27:18.003Z,1025.5994
2019-04-01T10:27:28.026Z,1025.6726
2019-04-01T10:27:38.101Z,1025.7015
2019-04-01T10:27:48.082Z,1025.6917
2019-04-01T10:27:59.139Z,1025.6573
2019-04-01T10:28:08.929Z,1025.6289
2019-04-01T10:28:19.196Z,1025.5838
2019-04-01T10:28:32.001Z,1025.5729
2019-04-01T10:28:40.402Z,1025.5843
2019-04-01T10:28:50.305Z,1025.5408
2019-04-01T10:29:00.331Z,1025.5638
2019-04-01T10:29:10.429Z,1025.6248
2019-04-01T10:29:20.570Z,1025.5997
2019-04-01T10:29:31.327Z,1025.5318
2019-04-01T10:29:40.370Z,1025.5975
2019-04-01T10:29:50.405Z,1025.5543
2019-04-01T10:30:01.527Z,1025.5688
2019-04-01T10:30:10.415Z,1025.5914
2019-04-01T10:30:20.503Z,1025.5059
2019-04-01T10:30:31.860Z,1025.5101
2019-04-01T10:30:42.272Z,1025.5411
2019-04-01T10:30:51.839Z,1025.6022
2019-04-01T10:31:01.846Z,1025.5102
2019-04-01T10:31:11.802Z,1025.5062
2019-04-01T10:31:22.697Z,1025.4962
2019-04-01T10:31:31.813Z,1025.5589
2019-04-01T10:31:41.887Z,1025.5845
2019-04-01T10:31:51.936Z,1025.5014
2019-04-01T10:32:01.832Z,1025.5076
2019-04-01T10:32:12.390Z,1025.5001
2019-04-01T10:32:24.087Z,1025.4698
2019-04-01T10:32:34.071Z,1025.4674
2019-04-01T10:32:45.081Z,1025.4468
2019-04-01T10:32:54.115Z,1025.5004
2019-04-01T10:33:05.086Z,1025.507
2019-04-01T10:33:14.159Z,1025.5397
2019-04-01T10:33:24.243Z,1025.4998
2019-04-01T10:33:34.451Z,1025.4431
2019-04-01T10:33:44.305Z,1025.4348
2019-04-01T10:33:54.314Z,1025.4154
2019-04-01T10:34:04.278Z,1025.3916
2019-04-01T10:34:14.305Z,1025.3686
2019-04-01T10:34:24.276Z,1025.3614
2019-04-01T10:34:36.585Z,1025.3719
2019-04-01T10:34:45.890Z,1025.3889
2019-04-01T10:34:55.852Z,1025.5042
2019-04-01T10:35:24.795Z,1025.3973
2019-04-01T10:36:05.490Z,1025.3631
2019-04-01T10:36:15.410Z,1025.3717
2019-04-01T10:36:25.512Z,1025.3521
2019-04-01T10:36:35.506Z,1025.3784
2019-04-01T10:36:45.618Z,1025.4631
2019-04-01T10:36:55.671Z,1025.4384
2019-04-01T10:37:05.700Z,1025.471
2019-04-01T10:37:15.679Z,1025.357
2019-04-01T10:37:25.616Z,1025.3569
2019-04-01T10:37:35.682Z,1025.3228
2019-04-01T10:37:45.868Z,1025.3419
2019-04-01T10:37:55.972Z,1025.325
2019-04-01T10:38:05.697Z,1025.3287
2019-04-01T10:38:15.741Z,1025.3406
2019-04-01T10:38:25.943Z,1025.3071
2019-04-01T10:38:35.696Z,1025.3012
2019-04-01T10:38:47.749Z,1025.2983
2019-04-01T10:38:56.816Z,1025.2426
2019-04-01T10:39:07.756Z,1025.2319
2019-04-01T10:39:17.071Z,1025.2504
2019-04-01T10:39:27.036Z,1025.2478
2019-04-01T10:39:36.984Z,1025.3536
2019-04-01T10:39:47.014Z,1025.3065
2019-04-01T10:40:00.003Z,1025.2939
2019-04-01T10:40:08.287Z,1025.3
2019-04-01T10:40:18.283Z,1025.3424
2019-04-01T10:40:28.244Z,1025.3734
2019-04-01T10:40:38.248Z,1025.3676
2019-04-01T10:40:48.311Z,1025.3944
2019-04-01T10:40:58.298Z,1025.4158
2019-04-01T10:41:08.285Z,1025.3538
2019-04-01T10:41:18.357Z,1025.3121
2019-04-01T10:41:28.433Z,1025.3574
2019-04-01T10:41:38.269Z,1025.3461
2019-04-01T10:41:48.373Z,1025.3726
2019-04-01T11:14:18.855Z,1024.9975
2019-04-01T11:14:27.706Z,1024.8533
2019-04-01T11:14:37.721Z,1024.8538
2019-04-01T11:14:47.774Z,1024.9582
2019-04-01T11:15:00.426Z,1024.8562
2019-04-01T11:15:09.890Z,1024.9183
2019-04-01T11:15:21.776Z,1024.9329
2019-04-01T11:15:31.726Z,1024.828
2019-04-01T11:15:40.847Z,1024.8486
2019-04-01T11:15:50.935Z,1024.895
2019-04-01T11:16:00.918Z,1024.9
2019-04-01T11:16:12.198Z,1024.846
2019-04-01T11:16:21.795Z,1024.8817
2019-04-01T11:16:32.678Z,1024.8695
2019-04-01T11:16:41.753Z,1024.8405
2019-04-01T11:16:54.041Z,1024.8771
2019-04-01T11:17:06.557Z,1024.8824
2019-04-01T11:17:20.734Z,1024.9538
2019-04-01T11:17:59.141Z,1024.8603
2019-04-01T11:18:08.332Z,1024.8483
2019-04-01T11:18:18.603Z,1024.9222
2019-04-01T11:18:29.996Z,1024.9152
2019-04-01T11:18:40.907Z,1024.8876
2019-04-01T11:18:51.029Z,1024.9296
2019-04-01T11:19:02.484Z,1024.9067
2019-04-01T11:19:14.053Z,1024.8822
2019-04-01T11:19:24.298Z,1024.9104
2019-04-01T11:19:33.972Z,1024.947
2019-04-01T11:19:45.134Z,1024.9138
2019-04-01T11:19:55.744Z,1024.9005
2019-04-01T11:20:05.186Z,1024.8682
2019-04-01T11:20:16.480Z,1024.8558
2019-04-01T11:20:25.687Z,1024.882
2019-04-01T11:20:38.324Z,1024.9097
2019-04-01T11:20:48.080Z,1024.8559
2019-04-01T11:20:59.295Z,1024.856
2019-04-01T11:21:09.425Z,1024.879
2019-04-01T11:21:20.402Z,1024.8491
2019-04-01T11:21:30.373Z,1024.8952
2019-04-01T11:21:40.410Z,1024.852
2019-04-01T11:21:50.513Z,1024.8446
2019-04-01T11:22:00.429Z,1024.8775
2019-04-01T11:22:10.875Z,1024.822
2019-04-01T11:22:20.676Z,1024.8193
2019-04-01T11:22:32.989Z,1024.867
2019-04-01T11:22:42.152Z,1024.8071
2019-04-01T11:22:52.146Z,1024.8045
2019-04-01T11:23:05.084Z,1024.8957
2019-04-01T11:23:14.571Z,1024.8129
2019-04-01T11:23:24.175Z,1024.8262
2019-04-01T11:23:35.823Z,1024.802
2019-04-01T11:23:45.088Z,1024.7869
2019-04-01T11:23:55.748Z,1024.8013
2019-04-01T11:24:08.274Z,1024.7593
2019-04-01T11:24:17.138Z,1024.7812
2019-04-01T11:24:27.256Z,1024.7626
2019-04-01T11:24:37.162Z,1024.8376
2019-04-01T11:24:47.144Z,1024.7827
2019-04-01T11:24:57.146Z,1024.7985
2019-04-01T11:25:07.177Z,1024.7844
2019-04-01T11:25:17.175Z,1024.7315
2019-04-01T11:25:27.217Z,1024.7618
2019-04-01T11:25:37.472Z,1024.7083
2019-04-01T11:25:48.418Z,1024.7314
2019-04-01T11:25:58.586Z,1024.7795
2019-04-01T11:26:08.587Z,1024.7329
2019-04-01T11:26:18.555Z,1024.7514
2019-04-01T11:26:28.609Z,1024.7117
2019-04-01T11:26:40.123Z,1024.7042
2019-04-01T11:26:49.143Z,1024.6724
2019-04-01T11:26:59.261Z,1024.6893
2019-04-01T11:27:09.210Z,1024.7191
2019-04-01T11:27:19.181Z,1024.6973
2019-04-01T11:27:29.231Z,1024.6862
2019-04-01T11:27:39.234Z,1024.6967
2019-04-01T11:27:49.255Z,1024.6795
2019-04-01T11:27:59.271Z,1024.6789
2019-04-01T11:28:10.762Z,1024.7015
2019-04-01T11:28:19.701Z,1024.6988
2019-04-01T11:28:29.691Z,1024.7381
2019-04-01T11:28:39.717Z,1024.7282
2019-04-01T11:28:49.756Z,1024.7331
2019-04-01T11:28:59.740Z,1024.7169
2019-04-01T11:29:09.803Z,1024.7294
2019-04-01T11:29:20.960Z,1024.8232
2019-04-01T11:29:32.259Z,1024.7412
2019-04-01T11:29:42.304Z,1024.7456
2019-04-01T11:29:52.358Z,1024.7143
2019-04-01T11:30:02.341Z,1024.6853
2019-04-01T11:30:14.332Z,1024.6762
2019-04-01T11:30:23.457Z,1024.6898
2019-04-01T11:30:36.706Z,1024.6817
2019-04-01T11:30:44.030Z,1024.7172
2019-04-01T11:30:54.267Z,1024.728
2019-04-01T11:31:04.061Z,1024.7666
2019-04-01T11:31:14.086Z,1024.7752
2019-04-01T11:31:24.112Z,1024.7752
2019-04-01T11:31:34.272Z,1024.75
2019-04-01T11:31:44.347Z,1024.7008
2019-04-01T11:31:54.105Z,1024.7186
2019-04-01T11:32:04.134Z,1024.696
2019-04-01T11:32:17.024Z,1024.7247
2019-04-01T11:32:25.919Z,1024.7152
2019-04-01T11:32:36.252Z,1024.6739
2019-04-01T11:32:46.373Z,1024.7088
2019-04-01T11:32:57.249Z,1024.6402
2019-04-01T11:33:08.413Z,1024.6696
2019-04-01T11:33:17.721Z,1024.6846
2019-04-01T11:33:27.231Z,1024.7593
2019-04-01T11:33:37.195Z,1024.6995
2019-04-01T11:33:47.305Z,1024.6888
2019-04-01T11:33:58.013Z,1024.7258
2019-04-01T11:34:07.619Z,1024.7105
2019-04-01T11:34:17.699Z,1024.7043
2019-04-01T11:34:28.444Z,1024.685
2019-04-01T11:34:37.599Z,1024.6865
2019-04-01T11:34:47.674Z,1024.6103
2019-04-01T11:34:59.266Z,1024.7131
2019-04-01T11:35:09.357Z,1024.6934
2019-04-01T11:35:19.642Z,1024.66
2019-04-01T11:35:28.644Z,1024.6878
2019-04-01T11:35:38.631Z,1024.7114
2019-04-01T11:35:48.711Z,1024.6708
2019-04-01T11:35:59.276Z,1024.6488
2019-04-01T11:36:47.388Z,1024.6884
2019-04-01T11:36:56.140Z,1024.6757
2019-04-01T11:37:06.166Z,1024.7103
2019-04-01T11:37:16.226Z,1024.6845
2019-04-01T11:37:26.216Z,1024.7119
2019-04-01T11:37:36.204Z,1024.6901
2019-04-01T11:37:46.242Z,1024.6345
2019-04-01T11:37:56.227Z,1024.6628
2019-04-01T11:38:06.251Z,1024.577
2019-04-01T11:38:16.335Z,1024.5834
2019-04-01T11:38:26.403Z,1024.5187
2019-04-01T11:38:36.346Z,1024.5198
2019-04-01T11:38:46.359Z,1024.5301
2019-04-01T11:38:56.406Z,1024.548
2019-04-01T11:39:07.484Z,1024.5596
2019-04-01T11:39:16.364Z,1024.5847
2019-04-01T11:39:26.463Z,1024.5747
2019-04-01T11:39:37.637Z,1024.6113
2019-04-01T11:39:46.421Z,1024.5836
2019-04-01T11:39:56.429Z,1024.6042
2019-04-01T11:40:10.329Z,1024.5954
2019-04-01T11:40:19.227Z,1024.5637
2019-04-01T11:40:29.238Z,1024.5541
2019-04-01T11:40:41.266Z,1024.5478
2019-04-01T11:40:51.532Z,1024.5839
2019-04-01T11:41:01.263Z,1024.5402
2019-04-01T11:41:11.418Z,1024.5335
2019-04-01T11:41:21.453Z,1024.4816
2019-04-01T11:41:31.399Z,1024.5003
2019-04-01T11:41:41.409Z,1024.5146
2019-04-01T11:41:51.497Z,1024.4907
2019-04-01T11:42:03.500Z,1024.5023
2019-04-01T11:42:12.503Z,1024.5023
2019-04-01T11:42:23.521Z,1024.4809
2019-04-01T11:42:32.627Z,1024.5266
2019-04-01T11:42:43.565Z,1024.5238
2019-04-01T11:42:53.685Z,1024.5111
2019-04-01T11:43:06.758Z,1024.5561
2019-04-01T11:43:16.223Z,1024.5551
2019-04-01T11:43:27.196Z,1024.4749
2019-04-01T11:43:38.396Z,1024.4869
2019-04-01T11:43:47.412Z,1024.5283
2019-04-01T11:43:57.470Z,1024.5477
2019-04-01T11:44:08.528Z,1024.4877
2019-04-01T11:44:17.486Z,1024.4874
2019-04-01T11:44:27.478Z,1024.4953
2019-04-01T11:44:37.477Z,1024.479
2019-04-01T11:44:47.496Z,1024.4548
2019-04-01T11:44:57.487Z,1024.4536
2019-04-01T11:45:09.334Z,1024.4659
2019-04-01T11:45:19.543Z,1024.4962
2019-04-01T11:45:29.573Z,1024.533
2019-04-01T11:45:39.429Z,1024.5494
2019-04-01T11:45:49.506Z,1024.5296
2019-04-01T11:45:59.493Z,1024.5296
2019-04-01T11:46:12.468Z,1024.4914
2019-04-01T11:46:24.472Z,1024.5085
2019-04-01T11:46:35.176Z,1024.5054
2019-04-01T11:46:44.329Z,1024.4851
2019-04-01T11:46:55.332Z,1024.4792
2019-04-01T11:47:21.951Z,1024.5051
2019-04-01T11:47:29.393Z,1024.5319
2019-04-01T11:47:39.428Z,1024.505
2019-04-01T11:47:50.370Z,1024.5593
2019-04-01T11:47:59.415Z,1024.4792
2019-04-01T11:48:09.551Z,1024.455
2019-04-01T11:48:19.442Z,1024.4995
2019-04-01T11:48:30.570Z,1024.4964
2019-04-01T11:48:39.518Z,1024.4709
2019-04-01T11:48:49.494Z,1024.4897
2019-04-01T11:48:59.521Z,1024.4901
2019-04-01T11:49:09.588Z,1024.5422
2019-04-01T11:49:19.832Z,1024.569
2019-04-01T11:49:30.692Z,1024.5561
2019-04-01T11:49:40.493Z,1024.5568
2019-04-01T11:49:50.498Z,1024.566
2019-04-01T11:50:01.506Z,1024.5882
2019-04-01T11:50:10.550Z,1024.5274
2019-04-01T11:50:20.650Z,1024.574
2019-04-01T11:50:31.367Z,1024.5271
2019-04-01T11:50:40.922Z,1024.5676
2019-04-01T11:50:51.679Z,1024.5115
2019-04-01T11:51:01.768Z,1024.5177
2019-04-01T11:51:11.774Z,1024.5673
2019-04-01T11:51:32.277Z,1024.5502
2019-04-01T11:51:41.138Z,1024.5042
2019-04-01T11:51:50.936Z,1024.5148
2019-04-01T11:52:01.022Z,1024.5081
2019-04-01T11:52:11.035Z,1024.4843
2019-04-01T11:52:21.796Z,1024.4959
2019-04-01T11:52:31.820Z,1024.4731
2019-04-01T11:52:42.801Z,1024.5335
2019-04-01T11:52:52.957Z,1024.4291
2019-04-01T11:53:02.975Z,1024.4061
2019-04-01T11:53:12.987Z,1024.4049
2019-04-01T11:53:23.028Z,1024.3978
2019-04-01T11:53:33.078Z,1024.3458
2019-04-01T11:53:43.140Z,1024.4259
2019-04-01T11:53:53.084Z,1024.3664
2019-04-01T11:54:03.165Z,1024.3167
2019-04-01T11:54:14.954Z,1024.3043
2019-04-01T11:54:24.969Z,1024.3377
2019-04-01T11:54:59.197Z,1024.3416
2019-04-01T11:55:29.131Z,1024.2968
2019-04-01T12:16:03.751Z,1024.1959
2019-04-01T12:47:27.507Z,1023.994
